createdAt,value
2022-10-05T00:30:48.158Z,0.00
2022-10-05T00:31:48.097Z,0.00
2022-10-05T00:32:48.039Z,0.00
2022-10-05T00:33:49.128Z,0.00
2022-10-05T00:34:49.123Z,0.00
2022-10-05T00:35:49.113Z,0.00
2022-10-05T00:36:49.393Z,0.00
2022-10-05T00:37:49.090Z,0.00
2022-10-05T00:38:49.086Z,0.00
2022-10-05T00:39:49.085Z,0.00
2022-10-05T00:40:49.077Z,0.00
2022-10-05T00:41:49.061Z,0.00
2022-10-05T00:42:49.101Z,0.00
2022-10-05T00:43:49.055Z,0.00
2022-10-05T00:44:49.038Z,0.00
2022-10-05T00:45:49.131Z,0.00
2022-10-05T00:46:49.190Z,0.00
2022-10-05T00:47:49.015Z,0.00
2022-10-05T00:48:49.007Z,0.00
2022-10-05T00:49:49.003Z,0.00
2022-10-05T00:50:49.017Z,0.00
2022-10-05T00:51:48.979Z,0.00
2022-10-05T00:52:48.976Z,0.00
2022-10-05T00:53:49.008Z,0.00
2022-10-05T00:54:48.964Z,0.00
2022-10-05T00:55:48.973Z,0.00
2022-10-05T00:56:49.103Z,0.00
2022-10-05T00:57:48.952Z,0.00
2022-10-05T00:58:48.937Z,0.00
2022-10-05T00:59:48.912Z,0.00
2022-10-05T01:00:49.937Z,0.00
2022-10-05T01:01:48.978Z,0.00
2022-10-05T01:02:48.963Z,0.00
2022-10-05T01:03:48.891Z,0.00
2022-10-05T01:04:48.883Z,0.00
2022-10-05T01:05:48.873Z,0.00
2022-10-05T01:06:48.963Z,0.00
2022-10-05T01:07:48.863Z,0.00
2022-10-05T01:08:48.851Z,0.00
2022-10-05T01:09:48.844Z,0.00
2022-10-05T01:10:48.856Z,0.00
2022-10-05T01:11:48.848Z,0.00
2022-10-05T01:12:48.831Z,0.00
2022-10-05T01:13:48.803Z,0.00
2022-10-05T01:14:49.814Z,0.00
2022-10-05T01:15:48.795Z,0.00
2022-10-05T01:16:49.285Z,0.00
2022-10-05T01:17:48.784Z,0.00
2022-10-05T01:18:48.790Z,0.00
2022-10-05T01:19:48.778Z,0.00
2022-10-05T01:20:48.756Z,0.00
2022-10-05T01:21:48.752Z,0.00
2022-10-05T01:22:48.753Z,0.00
2022-10-05T01:23:48.739Z,0.00
2022-10-05T01:24:48.728Z,0.00
2022-10-05T01:25:48.711Z,0.00
2022-10-05T01:26:49.064Z,0.00
2022-10-05T01:27:51.502Z,0.00
2022-10-05T01:28:48.702Z,0.00
2022-10-05T01:29:48.680Z,0.00
2022-10-05T01:30:48.674Z,0.00
2022-10-05T01:31:48.732Z,0.00
2022-10-05T01:32:48.662Z,0.00
2022-10-05T01:33:48.682Z,0.00
2022-10-05T01:34:48.648Z,0.00
2022-10-05T01:35:48.632Z,0.00
2022-10-05T01:36:49.053Z,0.00
2022-10-05T01:37:48.654Z,0.00
2022-10-05T01:38:48.612Z,0.00
2022-10-05T01:39:48.604Z,0.00
2022-10-05T01:40:48.596Z,0.00
2022-10-05T01:41:48.588Z,0.00
2022-10-05T01:42:48.597Z,0.00
2022-10-05T01:43:48.611Z,0.00
2022-10-05T01:44:48.576Z,0.00
2022-10-05T01:45:49.455Z,0.00
2022-10-05T01:46:48.983Z,0.00
2022-10-05T01:47:48.540Z,0.00
2022-10-05T01:48:48.530Z,0.00
2022-10-05T01:49:48.532Z,0.00
2022-10-05T01:50:48.519Z,0.00
2022-10-05T01:51:48.515Z,0.00
2022-10-05T01:53:54.799Z,0.00
2022-10-05T01:54:55.649Z,0.00
2022-10-05T01:55:54.794Z,0.00
2022-10-05T01:56:55.868Z,0.00
2022-10-05T01:57:55.859Z,0.00
2022-10-05T01:58:55.848Z,0.00
2022-10-05T01:59:55.843Z,0.00
2022-10-05T02:00:55.873Z,0.00
2022-10-05T02:01:55.900Z,0.00
2022-10-05T02:02:55.820Z,0.00
2022-10-05T02:03:55.811Z,0.00
2022-10-05T02:05:03.286Z,0.00
2022-10-05T02:05:57.816Z,0.00
2022-10-05T02:06:55.799Z,0.00
2022-10-05T02:07:55.788Z,0.00
2022-10-05T02:08:55.776Z,0.00
2022-10-05T02:09:55.769Z,0.00
2022-10-05T02:10:55.769Z,0.00
2022-10-05T02:11:55.760Z,0.00
2022-10-05T02:12:55.759Z,0.00
2022-10-05T02:13:55.745Z,0.00
2022-10-05T02:14:55.729Z,0.00
2022-10-05T02:15:55.730Z,0.00
2022-10-05T02:16:55.717Z,0.00
2022-10-05T02:17:55.697Z,0.00
2022-10-05T02:18:56.239Z,0.00
2022-10-05T02:19:55.684Z,0.00
2022-10-05T02:20:55.678Z,0.00
2022-10-05T02:21:55.691Z,0.00
2022-10-05T02:22:55.666Z,0.00
2022-10-05T02:23:55.656Z,0.00
2022-10-05T02:24:55.636Z,0.00
2022-10-05T02:25:55.642Z,0.00
2022-10-05T02:26:55.627Z,0.00
2022-10-05T02:27:55.662Z,0.00
2022-10-05T02:28:55.615Z,0.00
2022-10-05T02:29:55.615Z,0.00
2022-10-05T02:30:55.593Z,0.00
2022-10-05T02:31:55.626Z,0.00
2022-10-05T02:32:55.573Z,0.00
2022-10-05T02:33:56.170Z,0.00
2022-10-05T02:34:55.570Z,0.00
2022-10-05T02:35:57.239Z,0.00
2022-10-05T02:36:55.542Z,0.00
2022-10-05T02:37:55.533Z,0.00
2022-10-05T02:38:55.533Z,0.00
2022-10-05T02:39:55.519Z,0.00
2022-10-05T02:40:55.509Z,0.00
2022-10-05T02:41:55.495Z,0.00
2022-10-05T02:42:55.510Z,0.00
2022-10-05T02:43:55.508Z,0.00
2022-10-05T02:44:56.168Z,0.00
2022-10-05T02:45:55.525Z,0.00
2022-10-05T02:46:57.485Z,0.00
2022-10-05T02:47:57.258Z,0.00
2022-10-05T02:48:55.452Z,0.00
2022-10-05T02:49:55.437Z,0.00
2022-10-05T02:50:55.433Z,0.00
2022-10-05T02:51:55.421Z,0.00
2022-10-05T02:52:55.424Z,0.00
2022-10-05T02:53:55.414Z,0.00
2022-10-05T02:54:55.407Z,0.00
2022-10-05T02:55:55.396Z,0.00
2022-10-05T02:56:55.395Z,0.00
2022-10-05T02:57:55.385Z,0.00
2022-10-05T02:58:55.365Z,0.00
2022-10-05T02:59:55.359Z,0.00
2022-10-05T03:00:55.509Z,0.00
2022-10-05T03:01:55.377Z,0.00
2022-10-05T03:02:55.341Z,0.00
2022-10-05T03:03:55.316Z,0.00
2022-10-05T03:04:55.313Z,0.00
2022-10-05T03:05:55.317Z,0.00
2022-10-05T03:06:56.248Z,0.00
2022-10-05T03:07:55.285Z,0.00
2022-10-05T03:08:55.279Z,0.00
2022-10-05T03:09:58.883Z,0.00
2022-10-05T03:10:57.274Z,0.00
2022-10-05T03:11:55.260Z,0.00
2022-10-05T03:12:55.257Z,0.00
2022-10-05T03:13:55.236Z,0.00
2022-10-05T03:14:55.242Z,0.00
2022-10-05T03:15:55.298Z,0.00
2022-10-05T03:16:55.216Z,0.00
2022-10-05T03:17:55.214Z,0.00
2022-10-05T03:18:55.349Z,0.00
2022-10-05T03:19:55.195Z,0.00
2022-10-05T03:20:55.175Z,0.00
2022-10-05T03:21:55.169Z,0.00
2022-10-05T03:22:55.160Z,0.00
2022-10-05T03:23:55.156Z,0.00
2022-10-05T03:24:55.167Z,0.00
2022-10-05T03:25:55.756Z,0.00
2022-10-05T03:26:55.129Z,0.00
2022-10-05T03:27:55.175Z,0.00
2022-10-05T03:28:55.109Z,0.00
2022-10-05T03:29:55.097Z,0.00
2022-10-05T03:30:55.187Z,0.00
2022-10-05T03:31:55.085Z,0.00
2022-10-05T03:32:55.114Z,0.00
2022-10-05T03:33:55.072Z,0.00
2022-10-05T03:34:55.121Z,0.00
2022-10-05T03:35:55.074Z,0.00
2022-10-05T03:36:55.047Z,0.00
2022-10-05T03:37:55.089Z,0.00
2022-10-05T03:38:55.045Z,0.00
2022-10-05T03:39:55.026Z,0.00
2022-10-05T03:40:55.020Z,0.00
2022-10-05T03:41:55.011Z,0.00
2022-10-05T03:42:55.012Z,0.00
2022-10-05T03:43:55.004Z,0.00
2022-10-05T03:44:54.989Z,0.00
2022-10-05T03:45:55.046Z,0.00
2022-10-05T03:46:54.977Z,0.00
2022-10-05T03:48:01.126Z,0.00
2022-10-05T03:48:56.954Z,0.00
2022-10-05T03:49:54.954Z,0.00
2022-10-05T03:50:54.947Z,0.00
2022-10-05T03:51:54.936Z,0.00
2022-10-05T03:52:54.923Z,0.00
2022-10-05T03:53:54.912Z,0.00
2022-10-05T03:54:54.914Z,0.00
2022-10-05T03:55:54.909Z,0.00
2022-10-05T03:56:54.921Z,0.00
2022-10-05T03:57:54.888Z,0.00
2022-10-05T03:58:54.880Z,0.00
2022-10-05T03:59:54.877Z,0.00
2022-10-05T04:00:54.861Z,0.00
2022-10-05T04:01:54.946Z,0.00
2022-10-05T04:02:54.848Z,0.00
2022-10-05T04:03:54.836Z,0.00
2022-10-05T04:04:54.831Z,0.00
2022-10-05T04:05:54.822Z,0.00
2022-10-05T04:06:54.830Z,0.00
2022-10-05T04:07:54.804Z,0.00
2022-10-05T04:08:54.790Z,0.00
2022-10-05T04:09:54.782Z,0.00
2022-10-05T04:10:54.773Z,0.00
2022-10-05T04:11:54.782Z,0.00
2022-10-05T04:12:54.766Z,0.00
2022-10-05T04:13:54.755Z,0.00
2022-10-05T04:14:54.746Z,0.00
2022-10-05T04:15:54.806Z,0.00
2022-10-05T04:16:54.765Z,0.00
2022-10-05T04:17:54.718Z,0.00
2022-10-05T04:18:54.721Z,0.00
2022-10-05T04:19:54.732Z,0.00
2022-10-05T04:20:54.710Z,0.00
2022-10-05T04:21:54.699Z,0.00
2022-10-05T04:22:54.690Z,0.00
2022-10-05T04:23:54.682Z,0.00
2022-10-05T04:24:54.666Z,0.00
2022-10-05T04:25:54.664Z,0.00
2022-10-05T04:26:54.674Z,0.00
2022-10-05T04:27:54.691Z,0.00
2022-10-05T04:28:54.637Z,0.00
2022-10-05T04:29:54.680Z,0.00
2022-10-05T04:30:54.621Z,0.00
2022-10-05T04:31:54.605Z,0.00
2022-10-05T04:32:54.607Z,0.00
2022-10-05T04:33:54.590Z,0.00
2022-10-05T04:34:54.594Z,0.00
2022-10-05T04:35:54.582Z,0.00
2022-10-05T04:36:54.575Z,0.00
2022-10-05T04:37:54.560Z,0.00
2022-10-05T04:38:54.550Z,0.00
2022-10-05T04:39:54.578Z,0.00
2022-10-05T04:40:54.544Z,0.00
2022-10-05T04:41:54.532Z,0.00
2022-10-05T04:42:54.527Z,0.00
2022-10-05T04:43:54.522Z,0.00
2022-10-05T04:44:58.970Z,0.00
2022-10-05T04:45:55.504Z,0.00
2022-10-05T04:46:55.269Z,0.00
2022-10-05T04:47:54.493Z,0.00
2022-10-05T04:48:54.476Z,0.00
2022-10-05T04:49:54.465Z,0.00
2022-10-05T04:50:54.456Z,0.00
2022-10-05T04:51:54.463Z,0.00
2022-10-05T04:52:54.440Z,0.00
2022-10-05T04:53:54.429Z,4.00
2022-10-05T04:54:54.491Z,0.00
2022-10-05T04:55:54.417Z,0.00
2022-10-05T04:56:54.438Z,4.00
2022-10-05T04:57:54.408Z,4.00
2022-10-05T04:58:54.387Z,4.00
2022-10-05T04:59:54.384Z,4.00
2022-10-05T05:00:54.412Z,8.00
2022-10-05T05:01:54.380Z,8.00
2022-10-05T05:02:54.363Z,8.00
2022-10-05T05:03:54.373Z,12.00
2022-10-05T05:04:54.347Z,12.00
2022-10-05T05:06:15.933Z,16.00
2022-10-05T05:06:56.349Z,16.00
2022-10-05T05:07:54.338Z,16.00
2022-10-05T05:08:54.316Z,24.00
2022-10-05T05:09:54.318Z,24.00
2022-10-05T05:10:54.307Z,32.00
2022-10-05T05:11:54.293Z,32.00
2022-10-05T05:12:54.291Z,40.00
2022-10-05T05:13:54.277Z,48.00
2022-10-05T05:14:54.278Z,52.00
2022-10-05T05:15:54.322Z,60.00
2022-10-05T05:16:54.253Z,72.00
2022-10-05T05:17:54.248Z,76.00
2022-10-05T05:18:54.246Z,88.00
2022-10-05T05:19:54.236Z,96.00
2022-10-05T05:20:54.235Z,112.00
2022-10-05T05:21:54.213Z,124.00
2022-10-05T05:22:54.203Z,140.00
2022-10-05T05:23:54.195Z,164.00
2022-10-05T05:24:54.190Z,184.00
2022-10-05T05:25:54.230Z,212.00
2022-10-05T05:26:54.183Z,232.00
2022-10-05T05:27:54.203Z,272.00
2022-10-05T05:28:54.160Z,312.00
2022-10-05T05:29:54.149Z,364.00
2022-10-05T05:30:54.184Z,404.00
2022-10-05T05:31:54.160Z,456.00
2022-10-05T05:32:54.134Z,484.00
2022-10-05T05:33:54.127Z,524.00
2022-10-05T05:34:54.121Z,556.00
2022-10-05T05:35:54.103Z,592.00
2022-10-05T05:36:54.723Z,652.00
2022-10-05T05:37:55.093Z,672.00
2022-10-05T05:38:54.075Z,708.00
2022-10-05T05:39:54.068Z,728.00
2022-10-05T05:40:54.080Z,772.00
2022-10-05T05:41:54.073Z,804.00
2022-10-05T05:42:54.044Z,820.00
2022-10-05T05:43:54.048Z,792.00
2022-10-05T05:44:54.036Z,804.00
2022-10-05T05:45:54.041Z,876.00
2022-10-05T05:47:05.662Z,964.00
2022-10-05T05:47:56.775Z,996.00
2022-10-05T05:48:54.003Z,992.00
2022-10-05T05:49:54.076Z,1060.00
2022-10-05T05:50:53.992Z,1192.00
2022-10-05T05:51:54.016Z,1348.00
2022-10-05T05:52:54.000Z,1392.00
2022-10-05T05:53:53.958Z,1464.00
2022-10-05T05:54:53.988Z,1516.00
2022-10-05T05:55:53.943Z,1528.00
2022-10-05T05:56:53.953Z,1580.00
2022-10-05T05:57:53.939Z,1740.00
2022-10-05T05:58:53.928Z,1884.00
2022-10-05T05:59:54.912Z,1932.00
2022-10-05T06:00:53.914Z,2008.00
2022-10-05T06:01:54.025Z,1896.00
2022-10-05T06:02:53.998Z,1752.00
2022-10-05T06:03:53.925Z,1552.00
2022-10-05T06:04:53.877Z,1592.00
2022-10-05T06:05:53.886Z,1640.00
2022-10-05T06:07:30.369Z,1704.00
2022-10-05T06:07:53.877Z,1820.00
2022-10-05T06:08:53.839Z,1868.00
2022-10-05T06:09:53.866Z,2216.00
2022-10-05T06:10:53.820Z,2792.00
2022-10-05T06:11:53.813Z,3504.00
2022-10-05T06:12:56.423Z,3088.00
2022-10-05T06:13:53.802Z,2584.00
2022-10-05T06:14:53.801Z,2752.00
2022-10-05T06:15:53.862Z,2664.00
2022-10-05T06:16:53.897Z,2488.00
2022-10-05T06:17:53.783Z,2652.00
2022-10-05T06:18:53.765Z,3120.00
2022-10-05T06:19:53.753Z,4012.00
2022-10-05T06:20:53.787Z,4928.00
2022-10-05T06:21:53.746Z,6760.00
2022-10-05T06:22:53.742Z,6188.00
2022-10-05T06:23:53.715Z,7380.00
2022-10-05T06:24:53.706Z,6980.00
2022-10-05T06:25:53.715Z,7784.00
2022-10-05T06:26:53.697Z,7908.00
2022-10-05T06:27:54.373Z,8340.00
2022-10-05T06:28:53.684Z,9472.00
2022-10-05T06:29:53.678Z,10472.00
2022-10-05T06:30:53.675Z,10732.00
2022-10-05T06:31:58.568Z,11432.00
2022-10-05T06:32:55.663Z,10592.00
2022-10-05T06:33:53.635Z,10160.00
2022-10-05T06:34:53.625Z,11596.00
2022-10-05T06:35:53.619Z,10516.00
2022-10-05T06:36:53.607Z,12200.00
2022-10-05T06:37:53.647Z,7580.00
2022-10-05T06:38:53.603Z,7704.00
2022-10-05T06:39:55.472Z,9408.00
2022-10-05T06:40:54.586Z,5696.00
2022-10-05T06:41:53.569Z,5452.00
2022-10-05T06:42:53.567Z,4060.00
2022-10-05T06:43:53.553Z,3696.00
2022-10-05T06:44:53.559Z,3864.00
2022-10-05T06:45:53.622Z,4492.00
2022-10-05T06:46:53.551Z,4100.00
2022-10-05T06:47:53.530Z,3792.00
2022-10-05T06:48:53.511Z,3988.00
2022-10-05T06:49:54.251Z,4188.00
2022-10-05T06:50:53.495Z,4000.00
2022-10-05T06:51:53.495Z,3936.00
2022-10-05T06:52:53.477Z,3792.00
2022-10-05T06:53:53.480Z,3448.00
2022-10-05T06:54:53.460Z,3400.00
2022-10-05T06:55:53.464Z,3452.00
2022-10-05T06:56:53.449Z,3076.00
2022-10-05T06:57:53.456Z,2876.00
2022-10-05T06:58:53.433Z,2808.00
2022-10-05T06:59:53.419Z,2780.00
2022-10-05T07:00:53.447Z,2736.00
2022-10-05T07:01:54.448Z,2860.00
2022-10-05T07:02:53.421Z,2988.00
2022-10-05T07:03:53.388Z,3100.00
2022-10-05T07:04:53.377Z,3196.00
2022-10-05T07:05:53.371Z,3244.00
2022-10-05T07:06:53.365Z,3596.00
2022-10-05T07:07:53.405Z,4220.00
2022-10-05T07:08:53.347Z,4184.00
2022-10-05T07:09:53.344Z,4756.00
2022-10-05T07:10:53.334Z,4216.00
2022-10-05T07:11:58.462Z,3656.00
2022-10-05T07:12:55.313Z,3604.00
2022-10-05T07:13:54.307Z,3636.00
2022-10-05T07:14:53.297Z,3732.00
2022-10-05T07:15:54.876Z,3744.00
2022-10-05T07:16:54.380Z,4364.00
2022-10-05T07:17:53.279Z,4876.00
2022-10-05T07:18:53.871Z,5068.00
2022-10-05T07:19:53.268Z,5144.00
2022-10-05T07:20:53.251Z,5344.00
2022-10-05T07:21:53.252Z,5516.00
2022-10-05T07:22:53.243Z,5564.00
2022-10-05T07:23:53.238Z,6004.00
2022-10-05T07:24:53.236Z,6332.00
2022-10-05T07:25:53.213Z,6632.00
2022-10-05T07:26:53.228Z,7200.00
2022-10-05T07:27:53.300Z,7508.00
2022-10-05T07:28:53.196Z,7180.00
2022-10-05T07:29:53.188Z,7544.00
2022-10-05T07:30:53.198Z,7616.00
2022-10-05T07:31:53.160Z,8020.00
2022-10-05T07:32:53.162Z,9040.00
2022-10-05T07:33:53.156Z,9760.00
2022-10-05T07:34:53.133Z,10380.00
2022-10-05T07:35:53.134Z,10372.00
2022-10-05T07:36:55.026Z,10580.00
2022-10-05T07:37:54.110Z,10672.00
2022-10-05T07:38:53.117Z,11212.00
2022-10-05T07:40:00.447Z,11828.00
2022-10-05T07:40:55.095Z,11036.00
2022-10-05T07:41:53.081Z,10788.00
2022-10-05T07:42:53.085Z,9904.00
2022-10-05T07:44:12.598Z,9868.00
2022-10-05T07:44:55.262Z,10168.00
2022-10-05T07:45:53.114Z,9608.00
2022-10-05T07:46:53.660Z,9736.00
2022-10-05T07:47:54.306Z,9596.00
2022-10-05T07:48:53.050Z,8820.00
2022-10-05T07:49:54.093Z,8676.00
2022-10-05T07:50:53.028Z,8504.00
2022-10-05T07:51:53.003Z,8048.00
2022-10-05T07:52:52.987Z,7772.00
2022-10-05T07:53:53.813Z,7568.00
2022-10-05T07:54:55.877Z,7524.00
2022-10-05T07:55:53.131Z,7384.00
2022-10-05T07:56:53.156Z,7204.00
2022-10-05T07:57:52.980Z,6756.00
2022-10-05T07:58:52.943Z,6520.00
2022-10-05T07:59:52.934Z,7132.00
2022-10-05T08:00:52.936Z,7116.00
2022-10-05T08:01:53.014Z,7104.00
2022-10-05T08:02:52.964Z,7368.00
2022-10-05T08:03:52.901Z,7808.00
2022-10-05T08:04:52.908Z,7964.00
2022-10-05T08:05:52.891Z,8180.00
2022-10-05T08:06:52.876Z,8124.00
2022-10-05T08:07:52.907Z,8784.00
2022-10-05T08:08:52.874Z,8100.00
2022-10-05T08:09:52.851Z,10004.00
2022-10-05T08:10:52.850Z,8924.00
2022-10-05T08:11:52.841Z,9500.00
2022-10-05T08:12:52.856Z,8976.00
2022-10-05T08:13:53.793Z,8520.00
2022-10-05T08:14:53.805Z,7876.00
2022-10-05T08:15:53.932Z,8512.00
2022-10-05T08:16:52.806Z,8096.00
2022-10-05T08:17:52.782Z,6460.00
2022-10-05T08:18:52.774Z,6424.00
2022-10-05T08:19:52.768Z,6688.00
2022-10-05T08:20:52.789Z,7248.00
2022-10-05T08:21:52.754Z,6708.00
2022-10-05T08:22:52.779Z,6936.00
2022-10-05T08:23:52.783Z,7504.00
2022-10-05T08:24:52.727Z,7188.00
2022-10-05T08:25:52.760Z,6268.00
2022-10-05T08:26:52.717Z,6052.00
2022-10-05T08:27:52.831Z,6076.00
2022-10-05T08:28:52.695Z,5908.00
2022-10-05T08:29:52.690Z,5672.00
2022-10-05T08:30:52.713Z,4908.00
2022-10-05T08:31:52.682Z,4856.00
2022-10-05T08:32:52.666Z,5136.00
2022-10-05T08:33:52.651Z,5380.00
2022-10-05T08:34:53.276Z,5440.00
2022-10-05T08:35:52.647Z,4532.00
2022-10-05T08:36:54.000Z,4472.00
2022-10-05T08:37:53.640Z,4744.00
2022-10-05T08:38:52.622Z,4956.00
2022-10-05T08:39:52.605Z,5812.00
2022-10-05T08:40:52.610Z,6140.00
2022-10-05T08:41:52.599Z,5492.00
2022-10-05T08:42:52.678Z,5640.00
2022-10-05T08:43:52.586Z,6272.00
2022-10-05T08:44:52.567Z,6880.00
2022-10-05T08:45:52.592Z,6456.00
2022-10-05T08:46:52.558Z,5420.00
2022-10-05T08:47:52.546Z,4188.00
2022-10-05T08:48:52.562Z,4444.00
2022-10-05T08:49:52.534Z,5000.00
2022-10-05T08:50:52.518Z,4988.00
2022-10-05T08:51:52.524Z,4756.00
2022-10-05T08:52:52.506Z,4952.00
2022-10-05T08:53:52.502Z,4892.00
2022-10-05T08:54:52.485Z,5636.00
2022-10-05T08:55:52.476Z,6580.00
2022-10-05T08:56:52.474Z,7380.00
2022-10-05T08:57:52.466Z,7748.00
2022-10-05T08:58:52.461Z,7852.00
2022-10-05T08:59:53.440Z,7836.00
2022-10-05T09:00:52.457Z,7700.00
2022-10-05T09:01:52.470Z,7796.00
2022-10-05T09:02:52.605Z,7564.00
2022-10-05T09:03:52.410Z,7268.00
2022-10-05T09:04:53.405Z,7328.00
2022-10-05T09:05:52.426Z,7476.00
2022-10-05T09:06:52.395Z,7708.00
2022-10-05T09:07:52.393Z,7832.00
2022-10-05T09:08:52.374Z,7912.00
2022-10-05T09:09:52.408Z,7984.00
2022-10-05T09:10:52.366Z,8468.00
2022-10-05T09:11:52.367Z,7832.00
2022-10-05T09:12:52.373Z,7820.00
2022-10-05T09:13:52.330Z,7644.00
2022-10-05T09:15:01.525Z,7732.00
2022-10-05T09:15:54.389Z,7960.00
2022-10-05T09:16:52.308Z,8240.00
2022-10-05T09:17:52.297Z,8292.00
2022-10-05T09:18:52.290Z,8500.00
2022-10-05T09:19:52.289Z,8864.00
2022-10-05T09:20:52.278Z,8904.00
2022-10-05T09:21:52.274Z,8904.00
2022-10-05T09:22:52.269Z,8880.00
2022-10-05T09:23:52.253Z,8976.00
2022-10-05T09:24:52.261Z,8864.00
2022-10-05T09:25:52.281Z,9108.00
2022-10-05T09:26:52.232Z,9560.00
2022-10-05T09:27:52.225Z,9872.00
2022-10-05T09:28:52.225Z,9968.00
2022-10-05T09:29:52.220Z,10280.00
2022-10-05T09:30:52.230Z,10292.00
2022-10-05T09:31:52.230Z,10204.00
2022-10-05T09:32:52.183Z,10480.00
2022-10-05T09:33:52.543Z,10664.00
2022-10-05T09:34:52.164Z,10760.00
2022-10-05T09:35:52.151Z,10756.00
2022-10-05T09:36:52.161Z,10908.00
2022-10-05T09:37:52.162Z,11060.00
2022-10-05T09:38:52.139Z,11032.00
2022-10-05T09:39:52.122Z,9760.00
2022-10-05T09:40:52.110Z,10320.00
2022-10-05T09:41:52.104Z,11168.00
2022-10-05T09:42:52.752Z,11236.00
2022-10-05T09:43:52.084Z,10388.00
2022-10-05T09:44:52.074Z,10100.00
2022-10-05T09:45:52.131Z,10332.00
2022-10-05T09:46:52.066Z,10736.00
2022-10-05T09:47:52.069Z,9840.00
2022-10-05T09:48:52.048Z,9036.00
2022-10-05T09:49:52.029Z,9320.00
2022-10-05T09:50:52.030Z,9764.00
2022-10-05T09:51:52.030Z,10084.00
2022-10-05T09:52:52.013Z,10100.00
2022-10-05T09:53:52.005Z,10884.00
2022-10-05T09:54:51.994Z,10672.00
2022-10-05T09:55:52.001Z,11664.00
2022-10-05T09:56:51.977Z,10524.00
2022-10-05T09:57:53.250Z,10316.00
2022-10-05T09:58:52.964Z,10984.00
2022-10-05T09:59:51.962Z,10532.00
2022-10-05T10:00:59.469Z,10944.00
2022-10-05T10:01:53.280Z,10904.00
2022-10-05T10:02:52.058Z,11056.00
2022-10-05T10:03:51.949Z,10712.00
2022-10-05T10:04:51.914Z,10552.00
2022-10-05T10:05:51.933Z,10172.00
2022-10-05T10:06:51.901Z,10352.00
2022-10-05T10:07:51.893Z,10420.00
2022-10-05T10:08:51.896Z,10652.00
2022-10-05T10:09:51.883Z,10492.00
2022-10-05T10:10:51.869Z,9612.00
2022-10-05T10:11:51.874Z,9572.00
2022-10-05T10:12:51.850Z,9336.00
2022-10-05T10:13:51.843Z,8896.00
2022-10-05T10:14:51.839Z,8684.00
2022-10-05T10:15:51.894Z,9164.00
2022-10-05T10:16:51.812Z,8944.00
2022-10-05T10:17:51.807Z,9020.00
2022-10-05T10:18:51.812Z,9152.00
2022-10-05T10:19:51.806Z,9252.00
2022-10-05T10:20:51.791Z,8860.00
2022-10-05T10:21:51.788Z,9292.00
2022-10-05T10:22:51.774Z,9644.00
2022-10-05T10:23:51.797Z,9136.00
2022-10-05T10:24:51.762Z,9028.00
2022-10-05T10:25:51.741Z,9736.00
2022-10-05T10:26:51.752Z,9380.00
2022-10-05T10:27:52.548Z,9388.00
2022-10-05T10:28:52.731Z,8636.00
2022-10-05T10:29:51.721Z,9596.00
2022-10-05T10:30:51.771Z,9912.00
2022-10-05T10:31:51.704Z,9484.00
2022-10-05T10:32:51.695Z,9980.00
2022-10-05T10:33:51.694Z,9864.00
2022-10-05T10:34:51.672Z,10188.00
2022-10-05T10:35:51.689Z,10240.00
2022-10-05T10:36:51.914Z,11192.00
2022-10-05T10:37:54.559Z,10668.00
2022-10-05T10:38:51.649Z,9984.00
2022-10-05T10:39:51.635Z,9764.00
2022-10-05T10:40:51.639Z,9860.00
2022-10-05T10:41:51.612Z,10560.00
2022-10-05T10:42:51.621Z,8540.00
2022-10-05T10:43:52.347Z,9212.00
2022-10-05T10:44:51.605Z,9444.00
2022-10-05T10:45:52.321Z,9560.00
2022-10-05T10:46:52.145Z,8152.00
2022-10-05T10:47:51.918Z,8936.00
2022-10-05T10:48:51.562Z,8844.00
2022-10-05T10:49:52.483Z,9508.00
2022-10-05T10:50:51.563Z,8380.00
2022-10-05T10:51:51.552Z,7812.00
2022-10-05T10:52:51.533Z,8408.00
2022-10-05T10:53:53.321Z,8160.00
2022-10-05T10:54:51.515Z,7284.00
2022-10-05T10:55:52.427Z,7684.00
2022-10-05T10:56:51.967Z,7548.00
2022-10-05T10:57:51.490Z,8204.00
2022-10-05T10:58:51.485Z,8928.00
2022-10-05T10:59:51.467Z,9068.00
2022-10-05T11:00:52.475Z,9796.00
2022-10-05T11:01:51.963Z,10328.00
2022-10-05T11:02:51.548Z,9808.00
2022-10-05T11:03:51.448Z,8952.00
2022-10-05T11:04:51.443Z,8692.00
2022-10-05T11:05:51.432Z,8000.00
2022-10-05T11:06:51.433Z,8732.00
2022-10-05T11:07:51.422Z,9576.00
2022-10-05T11:08:51.440Z,7408.00
2022-10-05T11:09:51.462Z,8772.00
2022-10-05T11:10:51.393Z,9872.00
2022-10-05T11:11:51.788Z,8332.00
2022-10-05T11:12:51.407Z,8864.00
2022-10-05T11:13:51.359Z,7828.00
2022-10-05T11:14:53.338Z,7504.00
2022-10-05T11:15:51.469Z,7348.00
2022-10-05T11:16:51.661Z,6864.00
2022-10-05T11:17:51.337Z,6704.00
2022-10-05T11:20:05.665Z,6500.00
2022-10-05T11:20:59.210Z,6272.00
2022-10-05T11:21:58.201Z,5952.00
2022-10-05T11:22:59.078Z,5744.00
2022-10-05T11:23:58.181Z,5608.00
2022-10-05T11:24:58.184Z,5664.00
2022-10-05T11:25:59.282Z,5768.00
2022-10-05T11:26:59.259Z,5584.00
2022-10-05T11:27:59.334Z,5496.00
2022-10-05T11:28:59.248Z,5388.00
2022-10-05T11:29:59.233Z,5412.00
2022-10-05T11:30:59.284Z,5096.00
2022-10-05T11:31:59.248Z,4532.00
2022-10-05T11:32:59.215Z,5384.00
2022-10-05T11:33:59.194Z,5396.00
2022-10-05T11:34:59.187Z,4952.00
2022-10-05T11:35:59.194Z,4816.00
2022-10-05T11:36:59.211Z,4336.00
2022-10-05T11:37:59.163Z,5000.00
2022-10-05T11:38:59.173Z,5064.00
2022-10-05T11:39:59.144Z,4992.00
2022-10-05T11:40:59.138Z,4892.00
2022-10-05T11:41:59.146Z,4924.00
2022-10-05T11:42:59.126Z,4880.00
2022-10-05T11:44:03.259Z,4884.00
2022-10-05T11:45:00.122Z,4856.00
2022-10-05T11:46:00.638Z,4804.00
2022-10-05T11:47:00.092Z,4728.00
2022-10-05T11:47:59.657Z,4708.00
2022-10-05T11:48:59.088Z,4664.00
2022-10-05T11:49:59.071Z,4588.00
2022-10-05T11:50:59.060Z,4524.00
2022-10-05T11:51:59.056Z,4464.00
2022-10-05T11:52:59.047Z,4548.00
2022-10-05T11:53:59.030Z,4588.00
2022-10-05T11:55:10.255Z,4552.00
2022-10-05T11:56:01.025Z,4504.00
2022-10-05T11:56:59.297Z,4432.00
2022-10-05T11:57:59.009Z,4488.00
2022-10-05T11:58:58.997Z,4512.00
2022-10-05T11:59:58.987Z,4452.00
2022-10-05T12:00:58.979Z,4408.00
2022-10-05T12:01:59.587Z,4416.00
2022-10-05T12:02:59.075Z,4400.00
2022-10-05T12:03:59.119Z,4412.00
2022-10-05T12:04:58.954Z,4416.00
2022-10-05T12:05:58.944Z,4392.00
2022-10-05T12:06:58.966Z,4436.00
2022-10-05T12:07:59.669Z,4372.00
2022-10-05T12:08:58.937Z,4344.00
2022-10-05T12:09:58.953Z,4352.00
2022-10-05T12:10:58.914Z,4168.00
2022-10-05T12:11:58.929Z,4316.00
2022-10-05T12:12:59.079Z,4448.00
2022-10-05T12:13:58.891Z,4368.00
2022-10-05T12:14:58.914Z,4364.00
2022-10-05T12:15:58.921Z,4356.00
2022-10-05T12:16:58.896Z,4372.00
2022-10-05T12:17:58.849Z,4356.00
2022-10-05T12:19:00.599Z,4348.00
2022-10-05T12:19:59.675Z,4332.00
2022-10-05T12:20:58.831Z,4340.00
2022-10-05T12:22:31.615Z,4336.00
2022-10-05T12:22:59.035Z,4344.00
2022-10-05T12:23:58.805Z,4336.00
2022-10-05T12:24:58.823Z,4356.00
2022-10-05T12:25:58.789Z,4348.00
2022-10-05T12:27:01.713Z,4360.00
2022-10-05T12:27:58.838Z,4356.00
2022-10-05T12:28:58.771Z,4412.00
2022-10-05T12:29:58.773Z,4420.00
2022-10-05T12:30:58.833Z,4396.00
2022-10-05T12:31:58.738Z,4368.00
2022-10-05T12:33:31.162Z,4360.00
2022-10-05T12:33:58.767Z,4392.00
2022-10-05T12:35:01.786Z,4372.00
2022-10-05T12:35:59.734Z,4348.00
2022-10-05T12:37:06.245Z,4340.00
2022-10-05T12:38:02.641Z,4376.00
2022-10-05T12:38:58.689Z,4320.00
2022-10-05T12:40:00.668Z,4328.00
2022-10-05T12:40:58.675Z,4360.00
2022-10-05T12:41:58.663Z,4336.00
2022-10-05T12:42:59.239Z,4324.00
2022-10-05T12:43:58.674Z,4320.00
2022-10-05T12:45:00.154Z,4324.00
2022-10-05T12:45:58.654Z,4320.00
2022-10-05T12:46:58.639Z,4300.00
2022-10-05T12:47:58.612Z,4296.00
2022-10-05T12:48:58.615Z,4284.00
2022-10-05T12:49:58.598Z,4296.00
2022-10-05T12:51:00.215Z,4268.00
2022-10-05T12:51:58.581Z,4252.00
2022-10-05T12:52:58.574Z,4252.00
2022-10-05T12:53:58.611Z,4248.00
2022-10-05T12:54:58.561Z,4256.00
2022-10-05T12:55:58.558Z,4244.00
2022-10-05T12:56:58.543Z,4260.00
2022-10-05T12:57:59.536Z,4260.00
2022-10-05T12:58:58.746Z,4268.00
2022-10-05T12:59:58.516Z,4260.00
2022-10-05T13:00:59.556Z,4256.00
2022-10-05T13:01:58.564Z,4272.00
2022-10-05T13:02:58.495Z,4248.00